createdAt,value
2022-08-12T00:00:36.289Z,99.90
2022-08-12T00:03:22.795Z,99.90
2022-08-12T00:06:09.735Z,99.90
2022-08-12T00:08:57.564Z,99.90
2022-08-12T00:11:45.685Z,99.90
2022-08-12T00:14:32.902Z,16.10
2022-08-12T00:17:19.120Z,99.90
2022-08-12T00:20:05.534Z,99.90
2022-08-12T00:22:52.995Z,99.90
2022-08-12T00:26:21.141Z,99.90
2022-08-12T00:29:04.508Z,99.90
2022-08-12T00:31:53.822Z,1.00
2022-08-12T00:34:40.225Z,1.00
2022-08-12T00:37:27.765Z,1.00
2022-08-12T00:40:15.420Z,1.00
2022-08-12T00:42:43.235Z,1.00
2022-08-12T00:45:11.189Z,9.70
2022-08-12T00:47:39.511Z,1.00
2022-08-12T00:50:09.812Z,99.90
2022-08-12T00:52:37.502Z,99.90
2022-08-12T00:55:05.709Z,99.90
2022-08-12T00:57:36.582Z,99.90
2022-08-12T01:00:09.496Z,1.00
2022-08-12T01:02:45.265Z,1.00
2022-08-12T01:05:34.379Z,99.90
2022-08-12T01:08:21.830Z,1.00
2022-08-12T01:11:09.327Z,99.90
2022-08-12T01:13:42.505Z,99.90
2022-08-12T01:16:12.045Z,33.90
2022-08-12T01:18:42.133Z,59.60
2022-08-12T01:21:17.590Z,1.00
2022-08-12T01:24:29.865Z,99.90
2022-08-12T01:27:03.277Z,99.90
2022-08-12T01:29:41.765Z,1.00
2022-08-12T01:32:14.553Z,1.00
2022-08-12T01:35:05.744Z,99.90
2022-08-12T01:37:49.386Z,99.90
2022-08-12T01:40:34.314Z,1.00
2022-08-12T01:43:10.746Z,1.00
2022-08-12T01:45:47.147Z,1.00
2022-08-12T01:48:20.543Z,99.90
2022-08-12T01:51:09.667Z,1.00
2022-08-12T01:54:04.493Z,1.00
2022-08-12T01:56:58.582Z,1.00
2022-08-12T01:59:53.432Z,1.00
2022-08-12T02:02:39.960Z,1.00
2022-08-12T02:05:41.941Z,1.00
2022-08-12T02:08:40.251Z,99.90
2022-08-12T02:11:32.603Z,99.90
2022-08-12T02:14:18.502Z,1.00
2022-08-12T02:17:16.462Z,1.00
2022-08-12T02:20:24.040Z,27.60
2022-08-12T02:23:04.257Z,99.90
2022-08-12T02:25:41.242Z,1.00
2022-08-12T02:28:09.237Z,1.00
2022-08-12T02:30:41.255Z,99.90
2022-08-12T02:33:11.317Z,99.90
2022-08-12T02:35:39.779Z,99.90
2022-08-12T02:38:10.259Z,1.00
2022-08-12T02:40:40.803Z,1.00
2022-08-12T02:43:24.650Z,1.00
2022-08-12T02:46:04.684Z,99.90
2022-08-12T02:48:38.090Z,98.80
2022-08-12T02:51:09.845Z,99.90
2022-08-12T02:53:41.328Z,99.90
2022-08-12T02:56:09.683Z,1.00
2022-08-12T02:58:41.260Z,99.90
2022-08-12T03:01:14.023Z,1.00
2022-08-12T03:03:42.721Z,99.90
2022-08-12T03:06:20.815Z,1.00
2022-08-12T03:08:53.716Z,99.90
2022-08-12T03:11:50.585Z,99.90
2022-08-12T03:14:18.606Z,1.00
2022-08-12T03:16:52.683Z,50.80
2022-08-12T03:19:24.705Z,1.00
2022-08-12T03:22:08.620Z,1.00
2022-08-12T03:24:41.531Z,1.00
2022-08-12T03:27:11.442Z,1.00
2022-08-12T03:29:50.353Z,99.90
2022-08-12T03:32:36.162Z,99.90
2022-08-12T03:35:07.655Z,1.00
2022-08-12T03:37:39.906Z,1.00
2022-08-12T03:40:28.118Z,99.90
2022-08-12T03:43:14.591Z,99.90
2022-08-12T03:46:01.095Z,1.00
2022-08-12T03:48:47.957Z,73.70
2022-08-12T03:51:34.071Z,99.90
2022-08-12T03:54:20.883Z,99.90
2022-08-12T03:57:07.181Z,3.00
2022-08-12T03:59:53.460Z,99.90
2022-08-12T04:02:21.437Z,99.90
2022-08-12T04:04:49.651Z,99.90
2022-08-12T04:07:17.604Z,1.00
2022-08-12T04:09:47.043Z,99.90
2022-08-12T04:12:33.597Z,1.00
2022-08-12T04:15:02.368Z,1.00
2022-08-12T04:17:31.302Z,1.00
2022-08-12T04:19:59.707Z,1.00
2022-08-12T04:22:30.348Z,99.90
2022-08-12T04:25:01.370Z,1.00
2022-08-12T04:27:31.205Z,72.10
2022-08-12T04:30:30.427Z,50.10
2022-08-12T04:32:50.043Z,1.00
2022-08-12T04:35:18.427Z,99.90
2022-08-12T04:37:58.905Z,99.90
2022-08-12T04:40:33.567Z,1.00
2022-08-12T04:43:02.046Z,99.90
2022-08-12T04:45:31.533Z,8.80
2022-08-12T04:47:59.528Z,1.00
2022-08-12T04:50:36.296Z,14.00
2022-08-12T04:53:09.229Z,88.90
2022-08-12T04:55:38.535Z,1.00
2022-08-12T04:58:10.313Z,1.00
2022-08-12T05:00:38.917Z,1.00
2022-08-12T05:03:07.616Z,1.00
2022-08-12T05:05:37.809Z,99.90
2022-08-12T05:08:10.315Z,99.90
2022-08-12T05:10:38.124Z,99.90
2022-08-12T05:13:17.238Z,1.00
2022-08-12T05:16:03.607Z,99.90
2022-08-12T05:18:39.484Z,1.00
2022-08-12T05:21:09.125Z,1.00
2022-08-12T05:23:38.784Z,1.00
2022-08-12T05:26:06.689Z,99.90
2022-08-12T05:28:35.169Z,99.90
2022-08-12T05:31:03.456Z,99.90
2022-08-12T05:33:41.742Z,1.00
2022-08-12T05:36:15.364Z,72.80
2022-08-12T05:38:56.499Z,99.90
2022-08-12T05:41:30.405Z,1.00
2022-08-12T05:44:04.135Z,1.00
2022-08-12T05:46:33.607Z,99.90
2022-08-12T05:49:02.847Z,99.90
2022-08-12T05:51:39.710Z,99.90
2022-08-12T05:54:10.801Z,99.90
2022-08-12T05:56:40.053Z,99.90
2022-08-12T05:59:08.620Z,99.90
2022-08-12T06:02:09.720Z,99.90
2022-08-12T06:04:24.632Z,99.90
2022-08-12T06:06:53.567Z,99.90
2022-08-12T06:09:22.495Z,99.90
2022-08-12T06:11:59.960Z,99.90
2022-08-12T06:14:36.961Z,99.90
2022-08-12T06:17:05.700Z,99.90
2022-08-12T06:20:26.398Z,99.90
2022-08-12T06:22:21.094Z,99.90
2022-08-12T06:24:49.728Z,99.90
2022-08-12T06:27:18.581Z,99.90
2022-08-12T06:30:09.490Z,20.00
2022-08-12T06:32:34.616Z,1.00
2022-08-12T06:35:27.287Z,1.00
2022-08-12T06:37:57.215Z,1.00
2022-08-12T06:40:44.234Z,1.00
2022-08-12T06:43:13.450Z,1.00
2022-08-12T06:45:49.407Z,1.00
2022-08-12T06:48:17.328Z,1.00
2022-08-12T06:50:49.187Z,1.00
2022-08-12T06:53:16.823Z,1.00
2022-08-12T06:55:58.310Z,1.00
2022-08-12T06:58:34.093Z,1.00
2022-08-12T07:01:01.789Z,99.90
2022-08-12T07:03:29.456Z,99.90
2022-08-12T07:06:02.354Z,99.90
2022-08-12T07:08:35.211Z,99.90
2022-08-12T07:11:05.754Z,73.30
2022-08-12T07:14:12.499Z,1.00
2022-08-12T07:16:51.595Z,1.00
2022-08-12T07:19:21.539Z,1.00
2022-08-12T07:22:00.283Z,1.00
2022-08-12T07:24:30.528Z,1.00
2022-08-12T07:26:58.510Z,1.00
2022-08-12T07:29:58.359Z,1.00
2022-08-12T07:32:15.969Z,1.00
2022-08-12T07:34:43.611Z,1.00
2022-08-12T07:37:11.268Z,1.00
2022-08-12T07:39:51.145Z,1.00
2022-08-12T07:42:26.825Z,1.00
2022-08-12T07:44:55.801Z,1.00
2022-08-12T07:47:25.133Z,1.00
2022-08-12T07:50:03.406Z,1.00
2022-08-12T07:52:31.717Z,1.00
2022-08-12T07:55:00.714Z,1.00
2022-08-12T07:57:28.488Z,1.00
2022-08-12T07:59:58.888Z,1.00
2022-08-12T08:02:27.199Z,1.00
2022-08-12T08:04:57.805Z,1.00
2022-08-12T08:07:27.321Z,1.00
2022-08-12T08:10:00.241Z,1.00
2022-08-12T08:12:48.472Z,1.00
2022-08-12T08:15:16.777Z,99.90
2022-08-12T08:18:01.650Z,99.90
2022-08-12T08:20:34.928Z,99.90
2022-08-12T08:23:08.532Z,99.90
2022-08-12T08:25:38.660Z,99.90
2022-08-12T08:28:12.073Z,99.90
2022-08-12T08:30:43.873Z,99.90
2022-08-12T08:33:22.753Z,99.90
2022-08-12T08:35:57.517Z,99.90
2022-08-12T08:38:33.153Z,99.90
2022-08-12T08:42:16.577Z,99.90
2022-08-12T08:44:11.417Z,99.90
2022-08-12T08:47:05.493Z,99.90
2022-08-12T08:49:37.016Z,99.90
2022-08-12T08:52:10.897Z,99.90
2022-08-12T08:54:38.677Z,99.90
2022-08-12T08:57:08.388Z,99.90
2022-08-12T08:59:36.225Z,99.90
2022-08-12T09:02:04.408Z,99.90
2022-08-12T09:05:12.546Z,99.90
2022-08-12T09:07:51.101Z,99.90
2022-08-12T09:10:30.767Z,99.90
2022-08-12T09:13:23.234Z,99.90
2022-08-12T09:15:59.330Z,99.90
2022-08-12T09:18:33.177Z,99.90
2022-08-12T09:21:03.783Z,99.90
2022-08-12T09:23:59.826Z,99.90
2022-08-12T09:29:14.413Z,99.90
2022-08-12T09:32:03.336Z,99.90
2022-08-12T09:34:33.370Z,99.90
2022-08-12T09:37:18.526Z,99.90
2022-08-12T09:40:06.398Z,99.90
2022-08-12T09:43:15.046Z,99.90
2022-08-12T09:46:11.068Z,99.90
2022-08-12T09:48:40.059Z,99.90
2022-08-12T09:51:22.073Z,99.90
2022-08-12T09:54:34.546Z,99.90
2022-08-12T09:57:02.741Z,99.90
2022-08-12T10:00:15.435Z,99.90
2022-08-12T10:02:53.071Z,99.90
2022-08-12T10:05:13.764Z,99.90
2022-08-12T10:07:45.281Z,99.90
2022-08-12T10:10:24.920Z,99.90
2022-08-12T10:13:34.901Z,99.90
2022-08-12T10:16:22.550Z,99.90
2022-08-12T10:18:56.353Z,99.90
2022-08-12T10:21:35.617Z,99.90
2022-08-12T10:24:10.377Z,99.90
2022-08-12T10:26:58.432Z,99.90
2022-08-12T10:30:38.394Z,99.90
2022-08-12T10:32:45.078Z,99.90
2022-08-12T10:35:14.705Z,99.90
2022-08-12T10:38:36.413Z,99.90
2022-08-12T10:40:52.090Z,99.90
2022-08-12T10:43:56.187Z,99.90
2022-08-12T10:46:31.296Z,99.90
2022-08-12T10:49:06.537Z,99.90
2022-08-12T10:52:04.671Z,99.90
2022-08-12T10:54:36.887Z,99.90
2022-08-12T10:57:05.393Z,99.90
2022-08-12T11:00:29.631Z,99.90
2022-08-12T11:04:22.637Z,99.90
2022-08-12T11:07:10.114Z,99.90
2022-08-12T11:08:36.554Z,99.90
2022-08-12T11:10:49.390Z,99.90
2022-08-12T11:13:19.204Z,99.90
2022-08-12T11:16:21.742Z,99.90
2022-08-12T11:18:55.611Z,99.90
2022-08-12T11:21:56.397Z,99.90
2022-08-12T11:24:30.180Z,99.90
2022-08-12T11:27:07.622Z,99.90
2022-08-12T11:30:01.799Z,99.90
2022-08-12T11:32:26.015Z,99.90
2022-08-12T11:34:54.871Z,99.90
2022-08-12T11:37:25.512Z,98.40
2022-08-12T11:40:11.683Z,93.10
2022-08-12T11:42:39.841Z,87.70
2022-08-12T11:45:17.070Z,78.20
2022-08-12T11:47:44.951Z,70.10
2022-08-12T11:50:19.045Z,59.70
2022-08-12T11:52:55.875Z,53.40
2022-08-12T11:55:27.463Z,49.90
2022-08-12T11:58:09.500Z,44.80
2022-08-12T12:03:45.944Z,51.50
2022-08-12T12:06:20.717Z,52.80
2022-08-12T12:08:53.721Z,45.90
2022-08-12T12:11:22.888Z,41.20
2022-08-12T12:14:08.775Z,36.20
2022-08-12T12:16:40.019Z,30.00
2022-08-12T12:19:11.135Z,25.40
2022-08-12T12:21:48.695Z,24.70
2022-08-12T12:24:22.183Z,20.70
2022-08-12T12:27:00.176Z,17.80
2022-08-12T12:30:18.380Z,24.20
2022-08-12T12:32:18.893Z,22.90
2022-08-12T12:36:05.446Z,19.60
2022-08-12T12:38:03.688Z,20.90
2022-08-12T12:40:29.797Z,19.30
2022-08-12T12:43:00.575Z,21.20
2022-08-12T12:45:35.564Z,19.40
2022-08-12T12:48:13.692Z,13.70
2022-08-12T12:50:51.885Z,15.50
2022-08-12T12:54:05.170Z,13.90
2022-08-12T12:56:33.874Z,9.80
2022-08-12T12:59:06.070Z,7.90
2022-08-12T13:01:38.488Z,5.50
2022-08-12T13:04:12.062Z,10.00
2022-08-12T13:06:41.896Z,13.10
2022-08-12T13:09:13.201Z,13.50
2022-08-12T13:11:44.374Z,13.90
2022-08-12T13:14:28.845Z,10.10
2022-08-12T13:17:02.943Z,5.90
2022-08-12T13:19:36.526Z,4.10
2022-08-12T13:22:18.516Z,1.00
2022-08-12T13:24:52.100Z,1.00
2022-08-12T13:27:36.398Z,1.00
2022-08-12T13:30:11.085Z,1.00
2022-08-12T13:32:57.271Z,1.00
2022-08-12T13:35:33.564Z,1.00
2022-08-12T13:38:14.228Z,1.00
2022-08-12T13:40:41.920Z,1.00
2022-08-12T13:43:40.983Z,1.00
2022-08-12T13:46:11.948Z,1.00
2022-08-12T13:48:44.986Z,1.00
2022-08-12T13:51:14.466Z,1.00
2022-08-12T13:53:58.228Z,1.00
2022-08-12T13:56:34.911Z,1.00
2022-08-12T13:59:07.882Z,1.00
2022-08-12T14:01:40.778Z,1.00
2022-08-12T14:04:11.944Z,1.00
2022-08-12T14:06:43.472Z,4.20
2022-08-12T14:09:17.831Z,1.00
2022-08-12T14:11:58.889Z,1.00
2022-08-12T14:14:31.696Z,1.00
2022-08-12T14:17:09.938Z,1.00
2022-08-12T14:20:00.718Z,1.00
2022-08-12T14:22:28.965Z,1.00
2022-08-12T14:25:01.357Z,1.00
2022-08-12T14:28:02.853Z,1.00
2022-08-12T14:30:28.722Z,1.00
2022-08-12T14:33:02.829Z,1.00
2022-08-12T14:35:41.122Z,1.00
2022-08-12T14:38:16.422Z,1.00
2022-08-12T14:40:44.776Z,1.00
2022-08-12T14:43:14.264Z,1.00
2022-08-12T14:45:47.140Z,1.00
2022-08-12T14:48:24.502Z,1.00
2022-08-12T14:52:07.939Z,1.00
2022-08-12T14:59:57.618Z,1.00
2022-08-12T15:02:23.493Z,1.00
2022-08-12T15:04:59.148Z,1.00
2022-08-12T15:07:33.145Z,1.00
2022-08-12T15:10:13.320Z,1.00
2022-08-12T15:12:41.451Z,1.00
2022-08-12T15:15:10.419Z,1.00
2022-08-12T15:17:39.787Z,1.00
2022-08-12T15:20:31.725Z,1.00
2022-08-12T15:22:56.676Z,1.00
2022-08-12T15:25:27.624Z,1.00
2022-08-12T15:28:03.765Z,1.00
2022-08-12T15:30:39.983Z,1.00
2022-08-12T15:33:18.647Z,1.00
2022-08-12T15:35:52.922Z,1.00
2022-08-12T15:38:24.908Z,1.00
2022-08-12T15:40:54.740Z,1.00
2022-08-12T15:43:51.286Z,1.00
2022-08-12T15:46:15.038Z,1.00
2022-08-12T15:48:46.867Z,1.00
2022-08-12T15:51:59.040Z,1.00
2022-08-12T15:54:33.886Z,1.00
2022-08-12T15:57:08.110Z,1.00
2022-08-12T16:00:00.304Z,1.00
2022-08-12T16:02:29.905Z,1.00
2022-08-12T16:04:58.015Z,1.00
2022-08-12T16:07:31.255Z,1.00
2022-08-12T16:10:08.803Z,1.00
2022-08-12T16:12:43.744Z,1.00
2022-08-12T16:15:29.534Z,1.00
2022-08-12T16:18:15.230Z,1.00
2022-08-12T16:20:48.206Z,1.00
2022-08-12T16:23:36.319Z,1.00
2022-08-12T16:26:14.360Z,1.00
2022-08-12T16:28:47.351Z,1.00
2022-08-12T16:31:23.248Z,1.00
2022-08-12T16:34:00.163Z,1.00
2022-08-12T16:36:31.886Z,1.00
2022-08-12T16:39:03.251Z,1.00
2022-08-12T16:41:39.931Z,1.00
2022-08-12T16:44:09.015Z,1.00
2022-08-12T16:46:38.040Z,1.00
2022-08-12T16:49:13.125Z,1.00
2022-08-12T16:51:47.477Z,1.00
2022-08-12T16:54:18.882Z,1.00
2022-08-12T16:56:51.120Z,1.00
2022-08-12T16:59:52.875Z,1.00
2022-08-12T17:02:18.102Z,1.00
2022-08-12T17:05:04.951Z,1.00
2022-08-12T17:07:37.934Z,1.00
2022-08-12T17:10:08.899Z,1.00
2022-08-12T17:12:38.364Z,1.00
2022-08-12T17:15:25.646Z,1.00
2022-08-12T17:18:42.185Z,1.00
2022-08-12T17:20:47.290Z,1.00
2022-08-12T17:23:17.590Z,1.00
2022-08-12T17:25:49.015Z,1.00
2022-08-12T17:28:19.319Z,1.00
2022-08-12T17:30:51.237Z,1.00
2022-08-12T17:33:33.733Z,2.30
2022-08-12T17:36:05.746Z,2.70
2022-08-12T17:38:34.713Z,7.10
2022-08-12T17:41:22.321Z,14.60
2022-08-12T17:43:58.473Z,22.80
2022-08-12T17:46:33.030Z,34.00
2022-08-12T17:49:18.838Z,43.50
2022-08-12T17:52:02.563Z,48.20
2022-08-12T17:54:34.431Z,55.00
2022-08-12T17:57:16.119Z,84.80
2022-08-12T17:59:47.711Z,60.90
2022-08-12T18:02:25.410Z,66.50
2022-08-12T18:05:04.570Z,70.80
2022-08-12T18:07:35.681Z,71.20
2022-08-12T18:10:05.119Z,76.30
2022-08-12T18:12:50.812Z,79.00
2022-08-12T18:15:27.005Z,82.60
2022-08-12T18:18:16.659Z,85.40
2022-08-12T18:20:46.258Z,87.00
2022-08-12T18:23:13.998Z,89.20
2022-08-12T18:26:14.282Z,90.60
2022-08-12T18:28:48.380Z,91.90
2022-08-12T18:31:44.376Z,92.40
2022-08-12T18:34:19.011Z,92.90
2022-08-12T18:36:51.988Z,94.80
2022-08-12T18:39:23.211Z,95.20
2022-08-12T18:41:52.382Z,95.40
2022-08-12T18:44:22.491Z,95.50
2022-08-12T18:46:55.364Z,97.30
2022-08-12T18:49:33.516Z,97.50
2022-08-12T18:52:08.153Z,97.60
2022-08-12T18:54:53.377Z,98.70
2022-08-12T18:58:07.399Z,99.30
2022-08-12T19:00:22.325Z,99.90
2022-08-12T19:02:53.375Z,99.90
2022-08-12T19:05:24.814Z,99.90
2022-08-12T19:08:13.797Z,99.90
2022-08-12T19:10:51.149Z,99.90
2022-08-12T19:13:39.674Z,99.90
2022-08-12T19:16:12.337Z,99.90
2022-08-12T19:18:44.464Z,99.90
2022-08-12T19:21:20.263Z,99.90
2022-08-12T19:24:08.835Z,99.90
2022-08-12T19:26:37.485Z,99.90
2022-08-12T19:29:07.521Z,99.90
2022-08-12T19:31:56.859Z,99.90
2022-08-12T19:37:26.622Z,99.90
2022-08-12T19:40:08.830Z,99.90
2022-08-12T19:42:44.695Z,99.90
2022-08-12T19:45:13.948Z,99.90
2022-08-12T19:47:45.909Z,99.90
2022-08-12T19:50:20.323Z,99.90
2022-08-12T19:52:51.293Z,99.90
2022-08-12T19:55:24.094Z,99.90
2022-08-12T19:58:02.273Z,99.90
2022-08-12T20:00:31.963Z,99.90
2022-08-12T20:03:04.294Z,99.90
2022-08-12T20:06:07.057Z,99.90
2022-08-12T20:08:34.726Z,99.90
2022-08-12T20:12:15.109Z,99.90
2022-08-12T20:14:00.329Z,99.90
2022-08-12T20:16:51.900Z,99.90
2022-08-12T20:19:23.393Z,99.90
2022-08-12T20:21:51.232Z,99.90
2022-08-12T20:24:19.207Z,99.90
2022-08-12T20:26:48.117Z,99.90
2022-08-12T20:29:16.623Z,99.90
2022-08-12T20:31:44.679Z,99.90
2022-08-12T20:34:12.687Z,99.90
2022-08-12T20:36:44.336Z,99.90
2022-08-12T20:39:49.907Z,99.90
2022-08-12T20:42:07.918Z,99.90
2022-08-12T20:44:39.782Z,99.90
2022-08-12T20:47:19.637Z,99.90
2022-08-12T20:49:55.464Z,99.90
2022-08-12T20:52:30.511Z,99.90
2022-08-12T20:55:02.851Z,99.90
2022-08-12T20:57:37.871Z,99.90
2022-08-12T21:00:15.277Z,99.90
2022-08-12T21:02:49.973Z,99.90
2022-08-12T21:05:41.239Z,99.90
2022-08-12T21:08:26.306Z,99.90
2022-08-12T21:10:58.987Z,99.90
2022-08-12T21:13:27.096Z,99.90
2022-08-12T21:16:01.102Z,99.90
2022-08-12T21:18:31.863Z,99.90
2022-08-12T21:20:59.532Z,99.90
2022-08-12T21:23:31.096Z,99.90
2022-08-12T21:26:12.376Z,99.90
2022-08-12T21:28:56.578Z,99.90
2022-08-12T21:32:36.106Z,99.90
2022-08-12T21:34:17.910Z,99.90
2022-08-12T21:36:49.473Z,99.90
2022-08-12T21:39:22.041Z,99.90
2022-08-12T21:41:54.946Z,99.90
2022-08-12T21:45:44.027Z,99.90
2022-08-12T21:47:21.428Z,99.90
2022-08-12T21:50:03.728Z,99.90
2022-08-12T21:52:42.188Z,99.90
2022-08-12T21:55:17.693Z,99.90
2022-08-12T21:57:54.449Z,99.90
2022-08-12T22:00:34.334Z,99.90
2022-08-12T22:04:03.665Z,99.90
2022-08-12T22:06:31.198Z,99.90
2022-08-12T22:09:17.061Z,99.90
2022-08-12T22:11:49.198Z,99.90
2022-08-12T22:14:25.633Z,99.90
2022-08-12T22:16:55.866Z,99.90
2022-08-12T22:19:27.012Z,99.90
2022-08-12T22:21:56.210Z,99.90
2022-08-12T22:24:30.008Z,99.90
2022-08-12T22:27:07.946Z,99.90
2022-08-12T22:30:04.708Z,99.90
2022-08-12T22:32:33.738Z,99.90
2022-08-12T22:35:22.398Z,99.90
2022-08-12T22:37:53.630Z,99.90
2022-08-12T22:40:23.828Z,99.90
2022-08-12T22:43:15.595Z,99.90
2022-08-12T22:46:02.402Z,99.90
2022-08-12T22:48:31.113Z,99.90
2022-08-12T22:51:01.189Z,99.90
2022-08-12T22:53:36.443Z,99.90
2022-08-12T22:56:07.951Z,99.90
2022-08-12T22:58:36.896Z,99.90
2022-08-12T23:01:10.977Z,99.90
2022-08-12T23:03:48.087Z,99.90
2022-08-12T23:06:21.218Z,99.90
2022-08-12T23:08:50.664Z,99.90
2022-08-12T23:11:24.015Z,99.90
2022-08-12T23:13:56.850Z,99.90
2022-08-12T23:16:31.009Z,99.90
2022-08-12T23:19:18.089Z,99.90
2022-08-12T23:22:04.162Z,99.90
2022-08-12T23:24:56.449Z,99.90
2022-08-12T23:27:51.381Z,99.90
2022-08-12T23:30:32.428Z,99.90
2022-08-12T23:33:13.425Z,99.90
2022-08-12T23:36:02.938Z,99.90
2022-08-12T23:38:33.193Z,99.90
2022-08-12T23:41:03.390Z,99.90
2022-08-12T23:43:39.131Z,99.90
2022-08-12T23:46:10.917Z,99.90
2022-08-12T23:48:39.918Z,99.90
2022-08-12T23:51:21.944Z,99.90
2022-08-12T23:54:02.911Z,99.90
2022-08-12T23:56:34.967Z,1.00
2022-08-12T23:59:05.532Z,1.00
